Time,TemperatureF,DewpointF,PressureIn,WindDirection,WindDirectionDegrees,WindSpeedMPH,WindSpeedGustMPH,Humidity,HourlyPrecipIn,Conditions,Clouds,dailyrainin,SoftwareType,DateUTC
2013-01-13 00:03:00,23.9,17.1,30.09,NE,42,0.0,0.0,75,0.00,,---,0.00,VWS V14.01,2013-01-13 08:03:00,
2013-01-13 00:08:00,23.9,17.1,30.09,NE,42,0.0,0.0,75,0.00,,---,0.00,VWS V14.01,2013-01-13 08:08:00,
2013-01-13 00:13:00,23.9,17.1,30.09,NE,42,0.0,0.0,75,0.00,,---,0.00,VWS V14.01,2013-01-13 08:13:00,
2013-01-13 00:18:00,24.1,17.3,30.09,NE,42,0.0,0.0,75,0.00,,---,0.00,VWS V14.01,2013-01-13 08:18:00,
2013-01-13 00:24:00,24.3,17.8,30.09,NE,42,0.0,0.0,76,0.00,,---,0.00,VWS V14.01,2013-01-13 08:24:00,
2013-01-13 00:29:00,24.3,17.8,30.09,NE,42,0.0,0.0,76,0.00,,---,0.00,VWS V14.01,2013-01-13 08:29:00,
2013-01-13 00:34:00,24.4,18.0,30.09,NE,42,0.0,0.0,76,0.00,,---,0.00,VWS V14.01,2013-01-13 08:34:00,
2013-01-13 00:40:00,24.6,18.1,30.09,NE,42,0.0,0.0,76,0.00,,---,0.00,VWS V14.01,2013-01-13 08:40:00,
2013-01-13 00:45:00,24.4,17.7,30.09,NE,42,0.0,0.0,75,0.00,,---,0.00,VWS V14.01,2013-01-13 08:45:00,
2013-01-13 00:51:00,24.4,17.4,30.09,NE,42,0.0,0.0,74,0.00,,---,0.00,VWS V14.01,2013-01-13 08:51:00,
2013-01-13 00:57:00,24.3,17.2,30.09,NE,42,0.0,0.0,74,0.00,,---,0.00,VWS V14.01,2013-01-13 08:57:00,
2013-01-13 01:02:00,24.3,17.2,30.09,NE,42,0.0,0.0,74,0.00,,---,0.00,VWS V14.01,2013-01-13 09:02:00,
2013-01-13 01:07:00,24.1,16.7,30.09,NE,42,0.0,0.0,73,0.00,,---,0.00,VWS V14.01,2013-01-13 09:07:00,
2013-01-13 01:13:00,23.7,16.4,30.09,NE,42,0.0,0.0,73,0.00,,---,0.00,VWS V14.01,2013-01-13 09:13:00,
2013-01-13 01:19:00,23.5,15.9,30.09,NE,42,0.0,0.0,72,0.00,,---,0.00,VWS V14.01,2013-01-13 09:19:00,
2013-01-13 01:25:00,23.4,15.7,30.09,NE,42,0.0,0.0,72,0.00,,---,0.00,VWS V14.01,2013-01-13 09:25:00,
2013-01-13 01:31:00,23.2,15.5,30.09,NE,42,0.0,0.0,72,0.00,,---,0.00,VWS V14.01,2013-01-13 09:31:00,
2013-01-13 01:36:00,23.0,15.3,30.09,NE,42,0.0,0.0,72,0.00,,---,0.00,VWS V14.01,2013-01-13 09:36:00,
2013-01-13 01:42:00,22.8,15.2,30.09,NE,42,0.0,0.0,72,0.00,,---,0.00,VWS V14.01,2013-01-13 09:42:00,
2013-01-13 01:47:00,22.5,14.5,30.09,NE,42,0.0,0.0,71,0.00,,---,0.00,VWS V14.01,2013-01-13 09:47:00,
2013-01-13 01:53:00,22.3,14.6,30.09,NE,42,0.0,0.0,72,0.00,,---,0.00,VWS V14.01,2013-01-13 09:53:00,
2013-01-13 01:59:00,22.1,14.5,30.09,NE,42,0.0,0.0,72,0.00,,---,0.00,VWS V14.01,2013-01-13 09:59:00,
2013-01-13 02:04:00,22.3,14.6,30.09,NE,42,0.0,0.0,72,0.00,,---,0.00,VWS V14.01,2013-01-13 10:04:00,
2013-01-13 02:09:00,22.6,15.3,30.09,NE,42,0.0,0.0,73,0.00,,---,0.00,VWS V14.01,2013-01-13 10:09:00,
2013-01-13 02:15:00,22.8,15.5,30.09,NE,42,0.0,0.0,73,0.00,,---,0.00,VWS V14.01,2013-01-13 10:15:00,
2013-01-13 02:20:00,22.8,15.5,30.09,NE,42,0.0,0.0,73,0.00,,---,0.00,VWS V14.01,2013-01-13 10:20:00,
2013-01-13 02:26:00,22.8,15.5,30.09,NE,42,0.0,0.0,73,0.00,,---,0.00,VWS V14.01,2013-01-13 10:26:00,
2013-01-13 02:31:00,22.6,15.3,30.09,NE,42,0.0,0.0,73,0.00,,---,0.00,VWS V14.01,2013-01-13 10:31:00,
2013-01-13 02:37:00,22.6,15.3,30.09,NE,42,0.0,0.0,73,0.00,,---,0.00,VWS V14.01,2013-01-13 10:37:00,
2013-01-13 02:43:00,22.6,15.3,30.09,NE,42,0.0,0.0,73,0.00,,---,0.00,VWS V14.01,2013-01-13 10:43:00,
2013-01-13 02:49:00,22.5,15.1,30.12,NE,42,0.0,0.0,73,0.00,,---,0.00,VWS V14.01,2013-01-13 10:49:00,
2013-01-13 02:54:00,22.6,15.3,30.12,NE,42,0.0,0.0,73,0.00,,---,0.00,VWS V14.01,2013-01-13 10:54:00,
2013-01-13 03:00:00,22.5,15.1,30.12,NE,42,0.0,0.0,73,0.00,,---,0.00,VWS V14.01,2013-01-13 11:00:00,
2013-01-13 03:05:00,22.5,15.1,30.12,NE,42,0.0,0.0,73,0.00,,---,0.00,VWS V14.01,2013-01-13 11:05:00,
2013-01-13 03:10:00,22.5,15.1,30.12,NE,42,0.0,0.0,73,0.00,,---,0.00,VWS V14.01,2013-01-13 11:10:00,
2013-01-13 03:16:00,22.3,15.0,30.12,NE,42,0.0,0.0,73,0.00,,---,0.00,VWS V14.01,2013-01-13 11:16:00,
2013-01-13 03:21:00,22.5,15.1,30.12,NE,42,0.0,0.0,73,0.00,,---,0.00,VWS V14.01,2013-01-13 11:21:00,
2013-01-13 03:27:00,22.6,15.3,30.12,NE,42,0.0,0.0,73,0.00,,---,0.00,VWS V14.01,2013-01-13 11:27:00,
2013-01-13 03:32:00,22.8,15.5,30.09,NE,42,0.0,0.0,73,0.00,,---,0.00,VWS V14.01,2013-01-13 11:32:00,
2013-01-13 03:38:00,23.0,15.6,30.09,NE,42,0.0,0.0,73,0.00,,---,0.00,VWS V14.01,2013-01-13 11:38:00,
2013-01-13 03:44:00,23.2,15.5,30.09,NE,42,0.0,0.0,72,0.00,,---,0.00,VWS V14.01,2013-01-13 11:44:00,
2013-01-13 03:50:00,23.4,15.7,30.09,NE,42,0.0,0.0,72,0.00,,---,0.00,VWS V14.01,2013-01-13 11:50:00,
2013-01-13 03:56:00,23.2,15.2,30.09,NE,42,0.0,0.0,71,0.00,,---,0.00,VWS V14.01,2013-01-13 11:56:00,
2013-01-13 04:01:00,23.0,14.4,30.09,NE,42,0.0,0.0,69,0.00,,---,0.00,VWS V14.01,2013-01-13 12:01:00,
2013-01-13 04:07:00,22.8,13.9,30.09,NE,42,0.0,0.0,68,0.00,,---,0.00,VWS V14.01,2013-01-13 12:07:00,
2013-01-13 04:12:00,22.6,13.4,30.09,NE,42,0.0,0.0,67,0.00,,---,0.00,VWS V14.01,2013-01-13 12:12:00,
2013-01-13 04:17:00,22.6,13.4,30.09,NE,42,0.0,0.0,67,0.00,,---,0.00,VWS V14.01,2013-01-13 12:17:00,
2013-01-13 04:22:00,22.6,13.4,30.09,NE,42,0.0,0.0,67,0.00,,---,0.00,VWS V14.01,2013-01-13 12:22:00,
2013-01-13 04:28:00,22.6,13.4,30.09,NE,42,0.0,0.0,67,0.00,,---,0.00,VWS V14.01,2013-01-13 12:28:00,
2013-01-13 04:33:00,22.5,12.8,30.09,NE,42,0.0,0.0,66,0.00,,---,0.00,VWS V14.01,2013-01-13 12:33:00,
2013-01-13 04:39:00,22.3,12.7,30.09,NE,42,0.0,0.0,66,0.00,,---,0.00,VWS V14.01,2013-01-13 12:39:00,
2013-01-13 04:45:00,22.1,12.1,30.09,NE,42,0.0,0.0,65,0.00,,---,0.00,VWS V14.01,2013-01-13 12:45:00,
2013-01-13 04:51:00,22.1,12.1,30.09,NE,42,0.0,0.0,65,0.00,,---,0.00,VWS V14.01,2013-01-13 12:51:00,
2013-01-13 04:56:00,22.3,12.7,30.09,NE,42,0.0,0.0,66,0.00,,---,0.00,VWS V14.01,2013-01-13 12:56:00,
2013-01-13 05:02:00,22.3,12.3,30.09,NE,42,0.0,0.0,65,0.00,,---,0.00,VWS V14.01,2013-01-13 13:02:00,
2013-01-13 05:07:00,22.1,11.8,30.09,NE,42,0.0,0.0,64,0.00,,---,0.00,VWS V14.01,2013-01-13 13:07:00,
2013-01-13 05:12:00,22.1,11.8,30.09,NE,42,0.0,0.0,64,0.00,,---,0.00,VWS V14.01,2013-01-13 13:12:00,
2013-01-13 05:18:00,21.9,11.3,30.09,NE,42,0.0,0.0,63,0.00,,---,0.00,VWS V14.01,2013-01-13 13:18:00,
2013-01-13 05:23:00,21.7,10.4,30.09,NE,42,0.0,0.0,61,0.00,,---,0.00,VWS V14.01,2013-01-13 13:23:00,
2013-01-13 05:29:00,21.4,10.0,30.09,NE,42,0.0,0.0,61,0.00,,---,0.00,VWS V14.01,2013-01-13 13:29:00,
2013-01-13 05:34:00,21.2,10.2,30.09,NE,42,0.0,0.0,62,0.00,,---,0.00,VWS V14.01,2013-01-13 13:34:00,
2013-01-13 05:39:00,21.2,10.6,30.09,NE,42,0.0,0.0,63,0.00,,---,0.00,VWS V14.01,2013-01-13 13:39:00,
2013-01-13 05:44:00,21.2,10.6,30.09,NE,42,0.0,0.0,63,0.00,,---,0.00,VWS V14.01,2013-01-13 13:44:00,
2013-01-13 05:50:00,21.2,10.9,30.09,NE,42,0.0,0.0,64,0.00,,---,0.00,VWS V14.01,2013-01-13 13:50:00,
2013-01-13 05:55:00,21.4,11.1,30.09,NE,42,0.0,0.0,64,0.00,,---,0.00,VWS V14.01,2013-01-13 13:55:00,
2013-01-13 06:01:00,21.7,11.8,30.09,NE,42,0.0,0.0,65,0.00,,---,0.00,VWS V14.01,2013-01-13 14:01:00,
2013-01-13 06:06:00,21.9,12.3,30.09,NE,42,0.0,0.0,66,0.00,,---,0.00,VWS V14.01,2013-01-13 14:06:00,
2013-01-13 06:12:00,22.1,12.5,30.09,NE,42,0.0,0.0,66,0.00,,---,0.00,VWS V14.01,2013-01-13 14:12:00,
2013-01-13 06:17:00,21.9,11.6,30.09,NE,42,0.0,0.0,64,0.00,,---,0.00,VWS V14.01,2013-01-13 14:17:00,
2013-01-13 06:22:00,21.4,10.4,30.09,NE,42,0.0,0.0,62,0.00,,---,0.00,VWS V14.01,2013-01-13 14:22:00,
2013-01-13 06:27:00,21.2,10.2,30.09,NE,42,0.0,0.0,62,0.00,,---,0.00,VWS V14.01,2013-01-13 14:27:00,
2013-01-13 06:32:00,21.0,9.7,30.12,NE,42,0.0,0.0,61,0.00,,---,0.00,VWS V14.01,2013-01-13 14:32:00,
2013-01-13 06:37:00,21.0,10.1,30.12,NE,42,0.0,0.0,62,0.00,,---,0.00,VWS V14.01,2013-01-13 14:37:00,
2013-01-13 06:42:00,20.8,9.9,30.12,NE,42,0.0,0.0,62,0.00,,---,0.00,VWS V14.01,2013-01-13 14:42:00,
2013-01-13 06:48:00,20.8,10.2,30.09,NE,42,0.0,0.0,63,0.00,,---,0.00,VWS V14.01,2013-01-13 14:48:00,
2013-01-13 06:53:00,20.7,10.1,30.09,NE,42,0.0,0.0,63,0.00,,---,0.00,VWS V14.01,2013-01-13 14:53:00,
2013-01-13 06:59:00,20.7,10.4,30.12,NE,42,0.0,0.0,64,0.00,,---,0.00,VWS V14.01,2013-01-13 14:59:00,
2013-01-13 07:05:00,20.8,10.6,30.12,NE,42,0.0,0.0,64,0.00,,---,0.00,VWS V14.01,2013-01-13 15:05:00,
2013-01-13 07:11:00,20.8,10.9,30.12,NE,42,0.0,0.0,65,0.00,,---,0.00,VWS V14.01,2013-01-13 15:11:00,
2013-01-13 07:16:00,21.0,11.1,30.12,NE,42,0.0,0.0,65,0.00,,---,0.00,VWS V14.01,2013-01-13 15:16:00,
2013-01-13 07:22:00,21.0,11.1,30.12,NE,42,0.0,0.0,65,0.00,,---,0.00,VWS V14.01,2013-01-13 15:22:00,
2013-01-13 07:27:00,21.0,11.1,30.12,NE,42,0.0,0.0,65,0.00,,---,0.00,VWS V14.01,2013-01-13 15:27:00,
2013-01-13 07:33:00,21.0,11.1,30.12,NE,42,0.0,0.0,65,0.00,,---,0.00,VWS V14.01,2013-01-13 15:33:00,
2013-01-13 07:39:00,20.8,10.6,30.12,NE,42,0.0,0.0,64,0.00,,---,0.00,VWS V14.01,2013-01-13 15:39:00,
2013-01-13 07:44:00,20.8,10.9,30.12,NE,42,0.0,0.0,65,0.00,,---,0.00,VWS V14.01,2013-01-13 15:44:00,
2013-01-13 07:50:00,20.7,10.4,30.12,NE,42,0.0,0.0,64,0.00,,---,0.00,VWS V14.01,2013-01-13 15:50:00,
2013-01-13 07:55:00,20.8,10.9,30.12,NE,42,0.0,0.0,65,0.00,,---,0.00,VWS V14.01,2013-01-13 15:55:00,
2013-01-13 08:00:00,20.8,10.2,30.12,NE,42,0.0,0.0,63,0.00,,---,0.00,VWS V14.01,2013-01-13 16:00:00,
2013-01-13 08:06:00,20.7,9.4,30.12,NE,42,0.0,0.0,61,0.00,,---,0.00,VWS V14.01,2013-01-13 16:06:00,
2013-01-13 08:11:00,20.5,8.8,30.12,NE,42,0.0,0.0,60,0.00,,---,0.00,VWS V14.01,2013-01-13 16:11:00,
2013-01-13 08:16:00,20.7,9.4,30.12,NE,42,0.0,0.0,61,0.00,,---,0.00,VWS V14.01,2013-01-13 16:16:00,
2013-01-13 08:21:00,21.0,10.4,30.12,NE,42,0.0,0.0,63,0.00,,---,0.00,VWS V14.01,2013-01-13 16:21:00,
2013-01-13 08:26:00,21.2,10.9,30.12,NE,42,0.0,0.0,64,0.00,,---,0.00,VWS V14.01,2013-01-13 16:26:00,
2013-01-13 08:31:00,21.7,11.8,30.12,NE,42,0.0,0.0,65,0.00,,---,0.00,VWS V14.01,2013-01-13 16:31:00,
2013-01-13 08:37:00,22.3,12.3,30.12,NE,42,0.0,0.0,65,0.00,,---,0.00,VWS V14.01,2013-01-13 16:37:00,
2013-01-13 08:43:00,22.8,12.8,30.12,NE,42,0.0,0.0,65,0.00,,---,0.00,VWS V14.01,2013-01-13 16:43:00,
2013-01-13 08:48:00,23.4,12.6,30.12,NE,42,0.0,0.0,63,0.00,,---,0.00,VWS V14.01,2013-01-13 16:48:00,
2013-01-13 08:53:00,23.5,12.1,30.12,NE,42,0.0,0.0,61,0.00,,---,0.00,VWS V14.01,2013-01-13 16:53:00,
2013-01-13 08:59:00,23.5,12.1,30.12,NE,42,0.0,0.0,61,0.00,,---,0.00,VWS V14.01,2013-01-13 16:59:00,
2013-01-13 09:04:00,23.9,11.7,30.12,NE,42,0.0,0.0,59,0.00,,---,0.00,VWS V14.01,2013-01-13 17:04:00,
2013-01-13 09:10:00,24.1,11.1,30.12,NE,42,0.0,0.0,57,0.00,,---,0.00,VWS V14.01,2013-01-13 17:10:00,
2013-01-13 09:15:00,24.3,10.4,30.12,NE,42,0.0,0.0,55,0.00,,---,0.00,VWS V14.01,2013-01-13 17:15:00,
2013-01-13 09:21:00,24.4,10.6,30.12,NE,42,0.0,0.0,55,0.00,,---,0.00,VWS V14.01,2013-01-13 17:21:00,
2013-01-13 09:26:00,24.8,10.9,30.12,NE,42,0.0,0.0,55,0.00,,---,0.00,VWS V14.01,2013-01-13 17:26:00,
2013-01-13 09:32:00,25.2,10.9,30.12,NE,42,0.0,0.0,54,0.00,,---,0.00,VWS V14.01,2013-01-13 17:32:00,
2013-01-13 09:37:00,25.3,10.6,30.12,NE,42,0.0,0.0,53,0.00,,---,0.00,VWS V14.01,2013-01-13 17:37:00,
2013-01-13 09:42:00,25.5,10.8,30.12,NE,42,0.0,0.0,53,0.00,,---,0.00,VWS V14.01,2013-01-13 17:42:00,
2013-01-13 09:47:00,25.7,10.9,30.12,NE,42,0.0,0.0,53,0.00,,---,0.00,VWS V14.01,2013-01-13 17:47:00,
2013-01-13 09:52:00,25.9,11.1,30.12,NE,42,0.0,0.0,53,0.00,,---,0.00,VWS V14.01,2013-01-13 17:52:00,
2013-01-13 09:58:00,25.3,10.2,30.12,NE,42,0.0,0.0,52,0.00,,---,0.00,VWS V14.01,2013-01-13 17:58:00,
2013-01-13 10:03:00,25.2,10.0,30.12,NE,42,0.0,0.0,52,0.00,,---,0.00,VWS V14.01,2013-01-13 18:03:00,
2013-01-13 10:08:00,25.3,10.2,30.12,NE,42,0.0,0.0,52,0.00,,---,0.00,VWS V14.01,2013-01-13 18:08:00,
2013-01-13 10:13:00,25.7,10.9,30.12,NE,42,0.0,0.0,53,0.00,,---,0.00,VWS V14.01,2013-01-13 18:13:00,
2013-01-13 10:19:00,26.6,11.8,30.12,NE,42,0.0,0.0,53,0.00,,---,0.00,VWS V14.01,2013-01-13 18:19:00,
2013-01-13 10:24:00,27.5,12.6,30.12,NE,42,0.0,0.0,53,0.00,,---,0.00,VWS V14.01,2013-01-13 18:24:00,
2013-01-13 10:29:00,28.6,12.3,30.15,NE,42,0.0,0.0,50,0.00,,---,0.00,VWS V14.01,2013-01-13 18:29:00,
2013-01-13 10:35:00,29.3,11.6,30.15,NE,42,0.0,0.0,47,0.00,,---,0.00,VWS V14.01,2013-01-13 18:35:00,
2013-01-13 10:40:00,29.8,11.6,30.15,NE,42,0.0,0.0,46,0.00,,---,0.00,VWS V14.01,2013-01-13 18:40:00,
2013-01-13 10:46:00,30.0,11.3,30.12,NE,42,0.0,0.0,45,0.00,,---,0.00,VWS V14.01,2013-01-13 18:46:00,
2013-01-13 10:51:00,30.7,11.9,30.12,NE,42,0.0,0.0,45,0.00,,---,0.00,VWS V14.01,2013-01-13 18:51:00,
2013-01-13 10:56:00,31.3,12.4,30.12,NE,42,0.0,0.0,45,0.00,,---,0.00,VWS V14.01,2013-01-13 18:56:00,
2013-01-13 11:02:00,32.0,12.6,30.12,NE,42,0.0,0.0,44,0.00,,---,0.00,VWS V14.01,2013-01-13 19:02:00,
2013-01-13 11:07:00,30.7,10.9,30.12,NE,42,0.0,0.0,43,0.00,,---,0.00,VWS V14.01,2013-01-13 19:07:00,
2013-01-13 11:12:00,30.0,10.2,30.12,NE,42,0.0,0.0,43,0.00,,---,0.00,VWS V14.01,2013-01-13 19:12:00,
2013-01-13 11:18:00,29.8,10.6,30.12,NE,42,0.0,0.0,44,0.00,,---,0.00,VWS V14.01,2013-01-13 19:18:00,
2013-01-13 11:24:00,30.6,12.3,30.12,NE,42,0.0,0.0,46,0.00,,---,0.00,VWS V14.01,2013-01-13 19:24:00,
2013-01-13 11:30:00,31.5,12.6,30.12,NE,42,0.0,0.0,45,0.00,,---,0.00,VWS V14.01,2013-01-13 19:30:00,
2013-01-13 11:35:00,32.0,12.6,30.12,NE,42,0.0,0.0,44,0.00,,---,0.00,VWS V14.01,2013-01-13 19:35:00,
2013-01-13 11:41:00,32.5,13.6,30.12,NE,42,0.0,0.0,45,0.00,,---,0.00,VWS V14.01,2013-01-13 19:41:00,
2013-01-13 11:46:00,32.0,12.1,30.12,NE,42,0.0,0.0,43,0.00,,---,0.00,VWS V14.01,2013-01-13 19:46:00,
2013-01-13 11:52:00,32.0,12.6,30.12,NE,42,0.0,0.0,44,0.00,,---,0.00,VWS V14.01,2013-01-13 19:52:00,
2013-01-13 11:57:00,31.6,11.7,30.12,NE,42,0.0,0.0,43,0.00,,---,0.00,VWS V14.01,2013-01-13 19:57:00,
2013-01-13 12:02:00,32.0,12.1,30.12,NE,42,0.0,0.0,43,0.00,,---,0.00,VWS V14.01,2013-01-13 20:02:00,
2013-01-13 12:07:00,32.4,12.4,30.12,NE,42,0.0,0.0,43,0.00,,---,0.00,VWS V14.01,2013-01-13 20:07:00,
2013-01-13 12:12:00,32.2,12.2,30.12,NE,42,0.0,0.0,43,0.00,,---,0.00,VWS V14.01,2013-01-13 20:12:00,
2013-01-13 12:18:00,32.4,12.4,30.12,NE,42,0.0,0.0,43,0.00,,---,0.00,VWS V14.01,2013-01-13 20:18:00,
2013-01-13 12:24:00,32.2,11.7,30.12,NE,42,0.0,0.0,42,0.00,,---,0.00,VWS V14.01,2013-01-13 20:24:00,
2013-01-13 12:29:00,32.4,12.4,30.12,NE,42,0.0,0.0,43,0.00,,---,0.00,VWS V14.01,2013-01-13 20:29:00,
2013-01-13 12:35:00,32.7,12.7,30.12,NE,42,0.0,0.0,43,0.00,,---,0.00,VWS V14.01,2013-01-13 20:35:00,
2013-01-13 12:40:00,32.7,12.2,30.12,NE,42,0.0,0.0,42,0.00,,---,0.00,VWS V14.01,2013-01-13 20:40:00,
2013-01-13 12:46:00,33.1,12.5,30.12,NE,42,0.0,0.0,42,0.00,,---,0.00,VWS V14.01,2013-01-13 20:46:00,
2013-01-13 12:52:00,33.3,12.7,30.12,NE,42,0.0,0.0,42,0.00,,---,0.00,VWS V14.01,2013-01-13 20:52:00,
2013-01-13 12:57:00,33.4,12.3,30.12,NE,42,0.0,0.0,41,0.00,,---,0.00,VWS V14.01,2013-01-13 20:57:00,
2013-01-13 13:03:00,33.4,11.2,30.12,NE,42,0.0,0.0,39,0.00,,---,0.00,VWS V14.01,2013-01-13 21:03:00,
2013-01-13 13:08:00,33.8,11.5,30.12,NE,42,0.0,0.0,39,0.00,,---,0.00,VWS V14.01,2013-01-13 21:08:00,
2013-01-13 13:13:00,34.2,10.6,30.12,NE,42,0.0,0.0,37,0.00,,---,0.00,VWS V14.01,2013-01-13 21:13:00,
2013-01-13 13:18:00,34.3,10.2,30.12,NE,42,0.0,0.0,36,0.00,,---,0.00,VWS V14.01,2013-01-13 21:18:00,
2013-01-13 13:23:00,34.3,9.5,30.12,NE,42,0.0,0.0,35,0.00,,---,0.00,VWS V14.01,2013-01-13 21:23:00,
2013-01-13 13:29:00,34.3,8.9,30.12,NE,42,0.0,0.0,34,0.00,,---,0.00,VWS V14.01,2013-01-13 21:29:00,
2013-01-13 13:34:00,34.5,9.1,30.12,NE,42,0.0,0.0,34,0.00,,---,0.00,VWS V14.01,2013-01-13 21:34:00,
2013-01-13 13:40:00,34.9,9.4,30.12,NE,42,0.0,0.0,34,0.00,,---,0.00,VWS V14.01,2013-01-13 21:40:00,
2013-01-13 13:45:00,34.5,8.4,30.09,NE,42,0.0,0.0,33,0.00,,---,0.00,VWS V14.01,2013-01-13 21:45:00,
2013-01-13 13:51:00,34.5,8.4,30.09,NE,42,0.0,0.0,33,0.00,,---,0.00,VWS V14.01,2013-01-13 21:51:00,
2013-01-13 13:56:00,34.3,8.2,30.09,NE,42,0.0,0.0,33,0.00,,---,0.00,VWS V14.01,2013-01-13 21:56:00,
2013-01-13 14:01:00,34.3,8.2,30.12,NE,42,0.0,0.0,33,0.00,,---,0.00,VWS V14.01,2013-01-13 22:01:00,
2013-01-13 14:07:00,34.5,9.1,30.12,NE,42,0.0,0.0,34,0.00,,---,0.00,VWS V14.01,2013-01-13 22:07:00,
2013-01-13 14:13:00,34.3,8.9,30.12,NE,42,0.0,0.0,34,0.00,,---,0.00,VWS V14.01,2013-01-13 22:13:00,
2013-01-13 14:18:00,34.5,9.1,30.12,NE,42,0.0,0.0,34,0.00,,---,0.00,VWS V14.01,2013-01-13 22:18:00,
2013-01-13 14:24:00,34.5,8.4,30.12,NE,42,0.0,0.0,33,0.00,,---,0.00,VWS V14.01,2013-01-13 22:24:00,
2013-01-13 14:29:00,34.5,8.4,30.12,NE,42,0.0,0.0,33,0.00,,---,0.00,VWS V14.01,2013-01-13 22:29:00,
2013-01-13 14:35:00,34.5,8.4,30.12,NE,42,0.0,0.0,33,0.00,,---,0.00,VWS V14.01,2013-01-13 22:35:00,
2013-01-13 14:41:00,34.5,8.4,30.12,NE,42,0.0,0.0,33,0.00,,---,0.00,VWS V14.01,2013-01-13 22:41:00,
2013-01-13 14:46:00,34.5,8.4,30.12,NE,42,0.0,0.0,33,0.00,,---,0.00,VWS V14.01,2013-01-13 22:46:00,
2013-01-13 14:51:00,34.5,8.4,30.12,NE,42,0.0,0.0,33,0.00,,---,0.00,VWS V14.01,2013-01-13 22:51:00,
2013-01-13 14:57:00,34.3,8.2,30.12,NE,42,0.0,0.0,33,0.00,,---,0.00,VWS V14.01,2013-01-13 22:57:00,
2013-01-13 15:02:00,34.5,8.4,30.12,NE,42,0.0,0.0,33,0.00,,---,0.00,VWS V14.01,2013-01-13 23:02:00,
2013-01-13 15:07:00,34.5,8.4,30.12,NE,42,0.0,0.0,33,0.00,,---,0.00,VWS V14.01,2013-01-13 23:07:00,
2013-01-13 15:12:00,34.5,8.4,30.12,NE,42,0.0,0.0,33,0.00,,---,0.00,VWS V14.01,2013-01-13 23:12:00,
2013-01-13 15:18:00,34.5,8.4,30.12,NE,42,0.0,0.0,33,0.00,,---,0.00,VWS V14.01,2013-01-13 23:18:00,
2013-01-13 15:23:00,34.3,8.2,30.12,NE,42,0.0,0.0,33,0.00,,---,0.00,VWS V14.01,2013-01-13 23:23:00,
2013-01-13 15:28:00,34.3,8.2,30.12,NE,42,0.0,0.0,33,0.00,,---,0.00,VWS V14.01,2013-01-13 23:28:00,
2013-01-13 15:33:00,34.3,8.2,30.12,NE,42,0.0,0.0,33,0.00,,---,0.00,VWS V14.01,2013-01-13 23:33:00,
2013-01-13 15:38:00,34.3,9.5,30.12,NE,42,0.0,0.0,35,0.00,,---,0.00,VWS V14.01,2013-01-13 23:38:00,
2013-01-13 15:43:00,34.0,9.9,30.12,NE,42,0.0,0.0,36,0.00,,---,0.00,VWS V14.01,2013-01-13 23:43:00,
2013-01-13 15:49:00,33.8,9.7,30.12,NE,42,0.0,0.0,36,0.00,,---,0.00,VWS V14.01,2013-01-13 23:49:00,
2013-01-13 15:54:00,33.6,9.5,30.12,NE,42,0.0,0.0,36,0.00,,---,0.00,VWS V14.01,2013-01-13 23:54:00,
2013-01-13 15:59:00,33.4,10.0,30.12,NE,42,0.0,0.0,37,0.00,,---,0.00,VWS V14.01,2013-01-13 23:59:00,
2013-01-13 16:05:00,33.3,9.8,30.12,NE,42,0.0,0.0,37,0.00,,---,0.00,VWS V14.01,2013-01-14 00:05:00,
2013-01-13 16:10:00,33.1,9.7,30.12,NE,42,0.0,0.0,37,0.00,,---,0.00,VWS V14.01,2013-01-14 00:10:00,
2013-01-13 16:16:00,33.1,9.7,30.12,NE,42,0.0,0.0,37,0.00,,---,0.00,VWS V14.01,2013-01-14 00:16:00,
2013-01-13 16:22:00,32.9,10.1,30.12,NE,42,0.0,0.0,38,0.00,,---,0.00,VWS V14.01,2013-01-14 00:22:00,
2013-01-13 16:27:00,32.7,9.3,30.12,NE,42,0.0,0.0,37,0.00,,---,0.00,VWS V14.01,2013-01-14 00:27:00,
2013-01-13 16:33:00,32.7,9.3,30.12,NE,42,0.0,0.0,37,0.00,,---,0.00,VWS V14.01,2013-01-14 00:33:00,
2013-01-13 16:38:00,32.7,9.3,30.12,NE,42,0.0,0.0,37,0.00,,---,0.00,VWS V14.01,2013-01-14 00:38:00,
2013-01-13 16:44:00,32.4,9.0,30.12,NE,42,0.0,0.0,37,0.00,,---,0.00,VWS V14.01,2013-01-14 00:44:00,
2013-01-13 16:49:00,32.0,8.7,30.12,NE,42,0.0,0.0,37,0.00,,---,0.00,VWS V14.01,2013-01-14 00:49:00,
2013-01-13 16:54:00,31.6,9.0,30.12,NE,42,0.0,0.0,38,0.00,,---,0.00,VWS V14.01,2013-01-14 00:54:00,
2013-01-13 17:00:00,31.5,9.9,30.12,NE,42,0.0,0.0,40,0.00,,---,0.00,VWS V14.01,2013-01-14 01:00:00,
2013-01-13 17:05:00,31.5,9.9,30.12,NE,42,0.0,0.0,40,0.00,,---,0.00,VWS V14.01,2013-01-14 01:05:00,
2013-01-13 17:11:00,31.1,9.6,30.12,NE,42,0.0,0.0,40,0.00,,---,0.00,VWS V14.01,2013-01-14 01:11:00,
2013-01-13 17:16:00,31.1,10.2,30.12,NE,42,0.0,0.0,41,0.00,,---,0.00,VWS V14.01,2013-01-14 01:16:00,
2013-01-13 17:21:00,30.9,10.5,30.12,NE,42,0.0,0.0,42,0.00,,---,0.00,VWS V14.01,2013-01-14 01:21:00,
2013-01-13 17:26:00,31.1,11.2,30.12,NE,42,0.0,0.0,43,0.00,,---,0.00,VWS V14.01,2013-01-14 01:26:00,
2013-01-13 17:32:00,30.7,10.9,30.12,NE,42,0.0,0.0,43,0.00,,---,0.00,VWS V14.01,2013-01-14 01:32:00,
2013-01-13 17:37:00,30.4,10.6,30.12,NE,42,0.0,0.0,43,0.00,,---,0.00,VWS V14.01,2013-01-14 01:37:00,
2013-01-13 17:42:00,30.4,11.6,30.12,NE,42,0.0,0.0,45,0.00,,---,0.00,VWS V14.01,2013-01-14 01:42:00,
2013-01-13 17:48:00,30.4,11.6,30.12,NE,42,0.0,0.0,45,0.00,,---,0.00,VWS V14.01,2013-01-14 01:48:00,
2013-01-13 17:53:00,30.4,12.1,30.12,NE,42,0.0,0.0,46,0.00,,---,0.00,VWS V14.01,2013-01-14 01:53:00,
2013-01-13 17:59:00,30.2,11.9,30.12,NE,42,0.0,0.0,46,0.00,,---,0.00,VWS V14.01,2013-01-14 01:59:00,
2013-01-13 18:04:00,30.4,12.1,30.12,NE,42,0.0,0.0,46,0.00,,---,0.00,VWS V14.01,2013-01-14 02:04:00,
2013-01-13 18:10:00,30.4,12.1,30.12,NE,42,0.0,0.0,46,0.00,,---,0.00,VWS V14.01,2013-01-14 02:10:00,
2013-01-13 18:15:00,30.4,12.1,30.12,NE,42,0.0,0.0,46,0.00,,---,0.00,VWS V14.01,2013-01-14 02:15:00,
2013-01-13 18:20:00,30.4,12.1,30.12,NE,42,0.0,0.0,46,0.00,,---,0.00,VWS V14.01,2013-01-14 02:20:00,
2013-01-13 18:26:00,30.2,11.9,30.12,NE,42,0.0,0.0,46,0.00,,---,0.00,VWS V14.01,2013-01-14 02:26:00,
2013-01-13 18:31:00,30.2,11.9,30.12,NE,42,0.0,0.0,46,0.00,,---,0.00,VWS V14.01,2013-01-14 02:31:00,
2013-01-13 18:36:00,30.2,11.4,30.12,NE,42,0.0,0.0,45,0.00,,---,0.00,VWS V14.01,2013-01-14 02:36:00,
2013-01-13 18:42:00,30.2,11.4,30.12,NE,42,0.0,0.0,45,0.00,,---,0.00,VWS V14.01,2013-01-14 02:42:00,
2013-01-13 18:47:00,30.0,11.3,30.12,NE,42,0.0,0.0,45,0.00,,---,0.00,VWS V14.01,2013-01-14 02:47:00,
2013-01-13 18:52:00,30.0,11.3,30.12,NE,42,0.0,0.0,45,0.00,,---,0.00,VWS V14.01,2013-01-14 02:52:00,
2013-01-13 18:57:00,30.0,11.3,30.12,NE,42,0.0,0.0,45,0.00,,---,0.00,VWS V14.01,2013-01-14 02:57:00,
2013-01-13 19:02:00,30.2,11.4,30.09,NE,42,0.0,0.0,45,0.00,,---,0.00,VWS V14.01,2013-01-14 03:02:00,
2013-01-13 19:08:00,30.2,11.4,30.09,NE,42,0.0,0.0,45,0.00,,---,0.00,VWS V14.01,2013-01-14 03:08:00,
2013-01-13 19:14:00,30.6,10.7,30.12,NE,42,0.0,0.0,43,0.00,,---,0.00,VWS V14.01,2013-01-14 03:14:00,
2013-01-13 19:19:00,30.6,10.7,30.12,NE,42,0.0,0.0,43,0.00,,---,0.00,VWS V14.01,2013-01-14 03:19:00,
2013-01-13 19:24:00,30.0,11.3,30.12,NE,42,0.0,0.0,45,0.00,,---,0.00,VWS V14.01,2013-01-14 03:24:00,
2013-01-13 19:29:00,29.5,12.7,30.12,NE,42,0.0,0.0,49,0.00,,---,0.00,VWS V14.01,2013-01-14 03:29:00,
2013-01-13 19:34:00,28.9,12.6,30.12,NE,42,0.0,0.0,50,0.00,,---,0.00,VWS V14.01,2013-01-14 03:34:00,
2013-01-13 19:40:00,28.9,13.5,30.12,NE,42,0.0,0.0,52,0.00,,---,0.00,VWS V14.01,2013-01-14 03:40:00,
2013-01-13 19:45:00,29.1,13.7,30.12,NE,42,0.0,0.0,52,0.00,,---,0.00,VWS V14.01,2013-01-14 03:45:00,
2013-01-13 19:50:00,29.3,13.9,30.12,NE,42,0.0,0.0,52,0.00,,---,0.00,VWS V14.01,2013-01-14 03:50:00,
2013-01-13 19:56:00,29.7,14.2,30.12,NE,42,0.0,0.0,52,0.00,,---,0.00,VWS V14.01,2013-01-14 03:56:00,
2013-01-13 20:02:00,30.0,14.5,30.12,NE,42,0.0,0.0,52,0.00,,---,0.00,VWS V14.01,2013-01-14 04:02:00,
2013-01-13 20:08:00,30.4,14.0,30.12,NE,42,0.0,0.0,50,0.00,,---,0.00,VWS V14.01,2013-01-14 04:08:00,
2013-01-13 20:13:00,30.6,13.7,30.12,NE,42,0.0,0.0,49,0.00,,---,0.00,VWS V14.01,2013-01-14 04:13:00,
2013-01-13 20:19:00,30.4,13.1,30.12,NE,42,0.0,0.0,48,0.00,,---,0.00,VWS V14.01,2013-01-14 04:19:00,
2013-01-13 20:25:00,30.4,13.1,30.12,NE,42,0.0,0.0,48,0.00,,---,0.00,VWS V14.01,2013-01-14 04:25:00,
2013-01-13 20:30:00,30.4,13.1,30.15,NE,42,0.0,0.0,48,0.00,,---,0.00,VWS V14.01,2013-01-14 04:30:00,
2013-01-13 20:36:00,30.2,13.4,30.15,NE,42,0.0,0.0,49,0.00,,---,0.00,VWS V14.01,2013-01-14 04:36:00,
2013-01-13 20:41:00,29.8,13.9,30.15,NE,42,0.0,0.0,51,0.00,,---,0.00,VWS V14.01,2013-01-14 04:41:00,
2013-01-13 20:46:00,29.7,13.8,30.12,NE,42,0.0,0.0,51,0.00,,---,0.00,VWS V14.01,2013-01-14 04:46:00,
2013-01-13 20:52:00,29.7,14.2,30.12,NE,42,0.0,0.0,52,0.00,,---,0.00,VWS V14.01,2013-01-14 04:52:00,
2013-01-13 20:57:00,30.2,14.7,30.12,NE,42,0.0,0.0,52,0.00,,---,0.00,VWS V14.01,2013-01-14 04:57:00,
2013-01-13 21:02:00,30.2,14.7,30.12,NE,42,0.0,0.0,52,0.00,,---,0.00,VWS V14.01,2013-01-14 05:02:00,
2013-01-13 21:03:00,30.2,14.7,30.12,NE,42,0.0,0.0,52,0.00,,---,0.00,VWS V14.01,2013-01-14 05:03:00,
2013-01-13 21:04:00,30.2,14.7,30.12,NE,42,0.0,0.0,52,0.00,,---,0.00,VWS V14.01,2013-01-14 05:04:00,
2013-01-13 21:09:00,30.4,14.0,30.12,NE,42,0.0,0.0,50,0.00,,---,0.00,VWS V14.01,2013-01-14 05:09:00,
2013-01-13 21:15:00,30.4,14.0,30.12,NE,42,0.0,0.0,50,0.00,,---,0.00,VWS V14.01,2013-01-14 05:15:00,
2013-01-13 21:20:00,30.2,14.3,30.12,NE,42,0.0,0.0,51,0.00,,---,0.00,VWS V14.01,2013-01-14 05:20:00,
2013-01-13 21:25:00,30.2,14.3,30.12,NE,42,0.0,0.0,51,0.00,,---,0.00,VWS V14.01,2013-01-14 05:25:00,
2013-01-13 21:30:00,30.0,14.1,30.15,NE,42,0.0,0.0,51,0.00,,---,0.00,VWS V14.01,2013-01-14 05:30:00,
2013-01-13 21:36:00,29.8,14.4,30.15,NE,42,0.0,0.0,52,0.00,,---,0.00,VWS V14.01,2013-01-14 05:36:00,
2013-01-13 21:41:00,30.0,14.5,30.15,NE,42,0.0,0.0,52,0.00,,---,0.00,VWS V14.01,2013-01-14 05:41:00,
2013-01-13 21:46:00,30.2,14.3,30.15,NE,42,0.0,0.0,51,0.00,,---,0.00,VWS V14.01,2013-01-14 05:46:00,
2013-01-13 21:51:00,30.2,14.3,30.15,NE,42,0.0,0.0,51,0.00,,---,0.00,VWS V14.01,2013-01-14 05:51:00,
2013-01-13 21:57:00,30.2,14.7,30.15,NE,42,0.0,0.0,52,0.00,,---,0.00,VWS V14.01,2013-01-14 05:57:00,
2013-01-13 22:02:00,30.2,14.7,30.15,NE,42,0.0,0.0,52,0.00,,---,0.00,VWS V14.01,2013-01-14 06:02:00,
2013-01-13 22:08:00,30.0,14.5,30.15,NE,42,0.0,0.0,52,0.00,,---,0.00,VWS V14.01,2013-01-14 06:08:00,
2013-01-13 22:14:00,29.8,14.8,30.15,NE,42,0.0,0.0,53,0.00,,---,0.00,VWS V14.01,2013-01-14 06:14:00,
2013-01-13 22:20:00,29.8,15.2,30.15,NE,42,0.0,0.0,54,0.00,,---,0.00,VWS V14.01,2013-01-14 06:20:00,
2013-01-13 22:25:00,29.7,15.1,30.15,NE,42,0.0,0.0,54,0.00,,---,0.00,VWS V14.01,2013-01-14 06:25:00,
2013-01-13 22:31:00,29.7,15.5,30.15,NE,42,0.0,0.0,55,0.00,,---,0.00,VWS V14.01,2013-01-14 06:31:00,
2013-01-13 22:37:00,29.8,15.7,30.15,NE,42,0.0,0.0,55,0.00,,---,0.00,VWS V14.01,2013-01-14 06:37:00,
2013-01-13 22:43:00,30.0,15.8,30.15,NE,42,0.0,0.0,55,0.00,,---,0.00,VWS V14.01,2013-01-14 06:43:00,
2013-01-13 22:48:00,30.2,16.0,30.15,NE,42,0.0,0.0,55,0.00,,---,0.00,VWS V14.01,2013-01-14 06:48:00,
2013-01-13 22:54:00,30.4,15.3,30.15,NE,42,0.0,0.0,53,0.00,,---,0.00,VWS V14.01,2013-01-14 06:54:00,
2013-01-13 22:59:00,30.4,14.4,30.15,NE,42,0.0,0.0,51,0.00,,---,0.00,VWS V14.01,2013-01-14 06:59:00,
2013-01-13 23:05:00,30.4,14.0,30.15,NE,42,0.0,0.0,50,0.00,,---,0.00,VWS V14.01,2013-01-14 07:05:00,
2013-01-13 23:10:00,30.4,14.0,30.15,NE,42,0.0,0.0,50,0.00,,---,0.00,VWS V14.01,2013-01-14 07:10:00,
2013-01-13 23:16:00,30.4,13.1,30.15,NE,42,0.0,0.0,48,0.00,,---,0.00,VWS V14.01,2013-01-14 07:16:00,
2013-01-13 23:22:00,30.4,13.1,30.15,NE,42,0.0,0.0,48,0.00,,---,0.00,VWS V14.01,2013-01-14 07:22:00,
2013-01-13 23:27:00,30.4,13.1,30.15,NE,42,0.0,0.0,48,0.00,,---,0.00,VWS V14.01,2013-01-14 07:27:00,
2013-01-13 23:32:00,30.4,13.1,30.15,NE,42,0.0,0.0,48,0.00,,---,0.00,VWS V14.01,2013-01-14 07:32:00,
2013-01-13 23:38:00,30.4,12.6,30.15,NE,42,0.0,0.0,47,0.00,,---,0.00,VWS V14.01,2013-01-14 07:38:00,
2013-01-13 23:43:00,30.4,12.6,30.15,NE,42,0.0,0.0,47,0.00,,---,0.00,VWS V14.01,2013-01-14 07:43:00,
2013-01-13 23:49:00,30.4,12.6,30.12,NE,42,0.0,0.0,47,0.00,,---,0.00,VWS V14.01,2013-01-14 07:49:00,
2013-01-13 23:55:00,30.4,13.1,30.12,NE,42,0.0,0.0,48,0.00,,---,0.00,VWS V14.01,2013-01-14 07:55:00,